createdAt,value
2023-04-01T00:01:35.356Z,98631.47
2023-04-01T00:04:38.451Z,98626.81
2023-04-01T00:07:41.341Z,98628.81
2023-04-01T00:10:44.286Z,98626.41
2023-04-01T00:13:46.800Z,98631.28
2023-04-01T00:16:49.642Z,98637.25
2023-04-01T00:19:52.280Z,98630.84
2023-04-01T00:22:55.249Z,98631.47
2023-04-01T00:26:01.081Z,98629.06
2023-04-01T00:29:04.078Z,98623.50
2023-04-01T00:32:06.977Z,98631.03
2023-04-01T00:35:10.239Z,98638.56
2023-04-01T00:38:13.565Z,98634.25
2023-04-01T00:41:18.084Z,98634.88
2023-04-01T00:44:26.389Z,98631.41
2023-04-01T00:47:29.282Z,98620.06
2023-04-01T00:50:32.263Z,98631.50
2023-04-01T00:53:39.555Z,98623.53
2023-04-01T00:56:59.747Z,98624.56
2023-04-01T01:00:04.297Z,98618.53
2023-04-01T01:03:08.465Z,98618.91
2023-04-01T01:06:33.193Z,98618.44
2023-04-01T01:09:44.461Z,98613.87
2023-04-01T01:13:02.822Z,98610.78
2023-04-01T01:16:08.331Z,98613.69
2023-04-01T01:19:23.313Z,98614.87
2023-04-01T01:22:40.411Z,98609.97
2023-04-01T01:25:43.417Z,98623.22
2023-04-01T01:29:16.864Z,98619.28
2023-04-01T01:32:38.904Z,98622.22
2023-04-01T01:35:46.006Z,98611.34
2023-04-01T01:38:49.982Z,98613.63
2023-04-01T01:41:52.764Z,98604.38
2023-04-01T01:44:56.787Z,98608.06
2023-04-01T01:48:00.027Z,98600.09
2023-04-01T01:51:04.942Z,98608.88
2023-04-01T01:54:07.706Z,98602.19
2023-04-01T01:57:11.311Z,98607.47
2023-04-01T02:00:15.439Z,98595.09
2023-04-01T02:03:21.369Z,98600.16
2023-04-01T02:06:25.770Z,98606.78
2023-04-01T02:09:30.400Z,98618.12
2023-04-01T02:12:34.566Z,98601.19
2023-04-01T02:15:42.940Z,98599.63
2023-04-01T02:18:46.763Z,98599.56
2023-04-01T02:21:52.822Z,98589.03
2023-04-01T02:24:59.446Z,98599.19
2023-04-01T02:28:03.375Z,98593.31
2023-04-01T02:31:06.423Z,98590.47
2023-04-01T02:34:09.490Z,98586.66
2023-04-01T02:37:13.295Z,98581.34
2023-04-01T02:40:17.765Z,98586.94
2023-04-01T02:43:22.302Z,98580.16
2023-04-01T02:46:25.845Z,98585.00
2023-04-01T02:49:28.369Z,98585.00
2023-04-01T02:52:31.888Z,98582.72
2023-04-01T02:55:35.562Z,98588.94
2023-04-01T02:58:38.668Z,98584.56
2023-04-01T03:01:41.356Z,98587.94
2023-04-01T03:04:44.804Z,98583.00
2023-04-01T03:07:47.863Z,98582.56
2023-04-01T03:10:51.005Z,98593.72
2023-04-01T03:13:53.574Z,98591.22
2023-04-01T03:16:56.590Z,98590.56
2023-04-01T03:19:59.299Z,98595.50
2023-04-01T03:23:02.173Z,98590.56
2023-04-01T03:26:04.727Z,98586.28
2023-04-01T03:29:07.549Z,98580.53
2023-04-01T03:32:10.331Z,98587.84
2023-04-01T03:35:13.384Z,98587.47
2023-04-01T03:38:16.670Z,98594.12
2023-04-01T03:41:19.955Z,98598.87
2023-04-01T03:44:22.754Z,98598.16
2023-04-01T03:47:25.997Z,98614.22
2023-04-01T03:50:30.410Z,98616.41
2023-04-01T03:53:33.990Z,98613.75
2023-04-01T03:56:37.315Z,98615.56
2023-04-01T03:59:40.130Z,98615.53
2023-04-01T04:02:43.674Z,98625.31
2023-04-01T04:05:48.799Z,98615.97
2023-04-01T04:08:51.923Z,98622.91
2023-04-01T04:11:55.229Z,98623.47
2023-04-01T04:14:57.889Z,98625.94
2023-04-01T04:18:01.057Z,98624.44
2023-04-01T04:21:04.827Z,98623.44
2023-04-01T04:24:07.999Z,98625.19
2023-04-01T04:27:11.120Z,98626.66
2023-04-01T04:30:18.791Z,98621.72
2023-04-01T04:33:25.749Z,98620.59
2023-04-01T04:36:28.831Z,98618.31
2023-04-01T04:39:31.578Z,98616.94
2023-04-01T04:42:35.056Z,98612.38
2023-04-01T04:45:38.505Z,98611.00
2023-04-01T04:48:42.556Z,98607.06
2023-04-01T04:51:45.179Z,98606.84
2023-04-01T04:54:48.345Z,98602.59
2023-04-01T04:57:50.852Z,98609.00
2023-04-01T05:00:54.071Z,98614.00
2023-04-01T05:03:56.935Z,98603.06
2023-04-01T05:06:59.702Z,98618.97
2023-04-01T05:10:02.337Z,98620.13
2023-04-01T05:13:05.539Z,98611.19
2023-04-01T05:16:11.053Z,98620.25
2023-04-01T05:19:13.967Z,98611.31
2023-04-01T05:22:16.601Z,98610.66
2023-04-01T05:25:19.762Z,98608.00
2023-04-01T05:28:22.238Z,98613.66
2023-04-01T05:31:25.257Z,98620.06
2023-04-01T05:34:27.941Z,98628.13
2023-04-01T05:37:30.813Z,98626.12
2023-04-01T05:40:39.089Z,98629.50
2023-04-01T05:43:42.902Z,98624.72
2023-04-01T05:46:46.555Z,98624.00
2023-04-01T05:49:50.304Z,98629.84
2023-04-01T05:52:53.629Z,98613.34
2023-04-01T05:56:04.174Z,98620.84
2023-04-01T05:59:07.600Z,98612.50
2023-04-01T06:02:11.864Z,98619.09
2023-04-01T06:05:16.620Z,98613.25
2023-04-01T06:08:20.438Z,98612.72
2023-04-01T06:11:38.406Z,98621.22
2023-04-01T06:15:02.936Z,98621.03
2023-04-01T06:18:43.253Z,98620.97
2023-04-01T06:21:52.557Z,98615.81
2023-04-01T06:25:01.658Z,98611.22
2023-04-01T06:28:19.415Z,98618.09
2023-04-01T06:31:40.437Z,98611.22
2023-04-01T06:35:04.938Z,98608.81
2023-04-01T06:38:20.254Z,98612.00
2023-04-01T06:41:41.382Z,98617.44
2023-04-01T06:44:47.208Z,98627.94
2023-04-01T06:48:12.331Z,98625.78
2023-04-01T06:51:49.677Z,98626.88
2023-04-01T06:55:38.787Z,98630.59
2023-04-01T06:58:47.703Z,98638.94
2023-04-01T07:01:54.095Z,98624.19
2023-04-01T07:04:59.341Z,98627.47
2023-04-01T07:08:05.747Z,98622.19
2023-04-01T07:11:13.830Z,98625.94
2023-04-01T07:14:25.463Z,98622.72
2023-04-01T07:17:34.997Z,98626.97
2023-04-01T07:20:39.116Z,98628.78
2023-04-01T07:23:45.658Z,98631.00
2023-04-01T07:26:56.845Z,98630.44
2023-04-01T07:30:02.430Z,98628.69
2023-04-01T07:33:16.216Z,98626.88
2023-04-01T07:36:33.714Z,98619.34
2023-04-01T07:39:36.469Z,98630.00
2023-04-01T07:43:12.602Z,98619.16
2023-04-01T07:46:19.786Z,98624.34
2023-04-01T07:49:35.619Z,98631.31
2023-04-01T07:52:44.380Z,98626.19
2023-04-01T07:56:10.256Z,98615.28
2023-04-01T07:59:39.029Z,98620.22
2023-04-01T08:03:05.244Z,98629.87
2023-04-01T08:06:21.118Z,98625.41
2023-04-01T08:09:39.098Z,98630.69
2023-04-01T08:13:23.100Z,98626.19
2023-04-01T08:16:49.215Z,98627.41
2023-04-01T08:20:02.150Z,98630.47
2023-04-01T08:23:13.285Z,98639.28
2023-04-01T08:26:30.615Z,98632.72
2023-04-01T08:29:49.393Z,98628.19
2023-04-01T08:32:58.724Z,98624.28
2023-04-01T08:36:10.871Z,98625.94
2023-04-01T08:39:18.939Z,98635.56
2023-04-01T08:42:41.175Z,98643.34
2023-04-01T08:46:15.042Z,98629.25
2023-04-01T08:50:04.597Z,98640.97
2023-04-01T08:53:36.030Z,98634.00
2023-04-01T08:56:48.876Z,98649.19
2023-04-01T09:00:31.725Z,98638.09
2023-04-01T09:03:37.431Z,98639.53
2023-04-01T09:06:46.174Z,98628.25
2023-04-01T09:10:00.976Z,98635.63
2023-04-01T09:13:31.895Z,98632.34
2023-04-01T09:16:59.461Z,98639.97
2023-04-01T09:20:33.790Z,98645.28
2023-04-01T09:24:16.138Z,98638.06
2023-04-01T09:27:39.236Z,98637.25
2023-04-01T09:30:56.859Z,98629.84
2023-04-01T09:34:33.677Z,98629.59
2023-04-01T09:37:42.651Z,98640.50
2023-04-01T09:40:48.335Z,98647.88
2023-04-01T09:44:02.737Z,98634.94
2023-04-01T09:47:24.110Z,98635.78
2023-04-01T09:51:07.504Z,98633.09
2023-04-01T09:54:47.984Z,98633.91
2023-04-01T09:58:13.040Z,98635.13
2023-04-01T10:01:28.986Z,98626.94
2023-04-01T10:04:38.653Z,98645.03
2023-04-01T10:07:57.610Z,98632.06
2023-04-01T10:11:06.511Z,98635.09
2023-04-01T10:14:16.437Z,98636.69
2023-04-01T10:17:37.987Z,98637.28
2023-04-01T10:21:19.870Z,98641.41
2023-04-01T10:24:40.432Z,98643.16
2023-04-01T10:28:11.619Z,98655.50
2023-04-01T10:31:51.857Z,98653.84
2023-04-01T10:35:11.136Z,98651.19
2023-04-01T10:38:24.341Z,98643.47
2023-04-01T10:41:38.006Z,98652.28
2023-04-01T10:45:04.337Z,98653.38
2023-04-01T10:48:11.131Z,98666.78
2023-04-01T10:51:48.085Z,98662.06
2023-04-01T10:59:09.142Z,98653.06
2023-04-01T11:02:57.514Z,98651.56
2023-04-01T11:06:50.153Z,98655.75
2023-04-01T11:10:02.192Z,98655.75
2023-04-01T11:13:34.615Z,98648.12
2023-04-01T11:17:14.329Z,98657.34
2023-04-01T11:20:35.869Z,98652.00
2023-04-01T11:24:05.195Z,98646.16
2023-04-01T11:27:22.372Z,98639.13
2023-04-01T11:30:45.940Z,98634.50
2023-04-01T11:33:55.925Z,98641.44
2023-04-01T11:37:04.711Z,98637.00
2023-04-01T11:40:26.420Z,98634.94
2023-04-01T11:43:35.955Z,98647.56
2023-04-01T11:47:08.970Z,98644.09
2023-04-01T11:50:45.370Z,98642.91
2023-04-01T11:54:29.563Z,98649.47
2023-04-01T11:57:53.542Z,98654.22
2023-04-01T12:00:59.824Z,98661.00
2023-04-01T12:04:21.033Z,98659.81
2023-04-01T12:08:06.389Z,98660.81
2023-04-01T12:11:27.666Z,98656.09
2023-04-01T12:15:01.813Z,98652.78
2023-04-01T12:18:31.969Z,98649.69
2023-04-01T12:21:39.948Z,98654.00
2023-04-01T12:25:17.190Z,98652.09
2023-04-01T12:28:19.714Z,98655.56
2023-04-01T12:31:25.791Z,98658.81
2023-04-01T12:34:59.629Z,98655.28
2023-04-01T12:38:31.982Z,98651.81
2023-04-01T12:41:53.041Z,98645.25
2023-04-01T12:45:26.947Z,98653.03
2023-04-01T12:48:35.981Z,98651.28
2023-04-01T12:52:00.874Z,98653.69
2023-04-01T12:55:09.594Z,98651.59
2023-04-01T12:58:18.160Z,98641.34
2023-04-01T13:01:31.649Z,98634.56
2023-04-01T13:04:47.204Z,98633.03
2023-04-01T13:08:02.298Z,98635.81
2023-04-01T13:11:08.290Z,98621.66
2023-04-01T13:14:45.608Z,98628.50
2023-04-01T13:18:03.444Z,98623.91
2023-04-01T13:21:07.225Z,98617.09
2023-04-01T13:24:41.092Z,98613.34
2023-04-01T13:27:46.041Z,98617.62
2023-04-01T13:31:07.808Z,98611.84
2023-04-01T13:34:22.720Z,98628.47
2023-04-01T13:37:34.413Z,98626.66
2023-04-01T13:41:01.701Z,98623.63
2023-04-01T13:44:17.338Z,98629.69
2023-04-01T13:47:37.282Z,98638.38
2023-04-01T13:50:40.169Z,98632.91
2023-04-01T13:54:15.265Z,98622.78
2023-04-01T13:57:38.566Z,98624.56
2023-04-01T14:00:59.700Z,98619.66
2023-04-01T14:04:23.717Z,98621.97
2023-04-01T14:07:53.706Z,98632.06
2023-04-01T14:10:56.612Z,98631.25
2023-04-01T14:14:08.092Z,98625.31
2023-04-01T14:17:16.681Z,98623.28
2023-04-01T14:20:35.398Z,98638.56
2023-04-01T14:24:06.742Z,98632.81
2023-04-01T14:27:37.026Z,98632.00
2023-04-01T14:31:04.355Z,98633.97
2023-04-01T14:34:16.090Z,98628.81
2023-04-01T14:37:56.822Z,98624.25
2023-04-01T14:41:18.980Z,98630.88
2023-04-01T14:45:05.371Z,98619.97
2023-04-01T14:48:23.209Z,98639.88
2023-04-01T14:51:41.000Z,98635.50
2023-04-01T14:54:49.028Z,98635.44
2023-04-01T14:58:05.744Z,98630.50
2023-04-01T15:01:31.519Z,98629.09
2023-04-01T15:05:01.981Z,98630.06
2023-04-01T15:08:36.995Z,98630.25
2023-04-01T15:11:55.235Z,98630.84
2023-04-01T15:15:20.955Z,98635.50
2023-04-01T15:18:32.132Z,98637.47
2023-04-01T15:21:37.746Z,98632.91
2023-04-01T15:24:48.440Z,98637.59
2023-04-01T15:28:16.861Z,98635.44
2023-04-01T15:31:26.467Z,98637.19
2023-04-01T15:34:35.323Z,98642.00
2023-04-01T15:37:48.060Z,98653.28
2023-04-01T15:40:58.917Z,98650.84
2023-04-01T15:44:01.788Z,98660.06
2023-04-01T15:47:20.843Z,98651.09
2023-04-01T15:50:39.618Z,98654.81
2023-04-01T15:54:04.015Z,98660.00
2023-04-01T15:57:27.532Z,98662.63
2023-04-01T16:00:59.000Z,98675.84
2023-04-01T16:04:01.924Z,98671.16
2023-04-01T16:07:11.694Z,98677.47
2023-04-01T16:10:46.803Z,98675.34
2023-04-01T16:14:01.185Z,98671.50
2023-04-01T16:17:50.406Z,98680.47
2023-04-01T16:21:15.800Z,98683.78
2023-04-01T16:24:25.870Z,98677.66
2023-04-01T16:27:49.103Z,98671.88
2023-04-01T16:30:59.476Z,98685.00
2023-04-01T16:34:22.719Z,98688.97
2023-04-01T16:38:15.058Z,98685.25
2023-04-01T16:41:38.120Z,98696.13
2023-04-01T16:45:16.756Z,98706.37
2023-04-01T16:48:22.714Z,98698.88
2023-04-01T16:51:33.738Z,98703.38
2023-04-01T16:58:01.307Z,98701.16
2023-04-01T17:01:13.964Z,98706.72
2023-04-01T17:04:28.267Z,98698.91
2023-04-01T17:07:45.265Z,98698.50
2023-04-01T17:11:09.715Z,98709.00
2023-04-01T17:14:51.781Z,98711.31
2023-04-01T17:18:00.613Z,98712.75
2023-04-01T17:21:19.010Z,98712.16
2023-04-01T17:24:35.730Z,98724.12
2023-04-01T17:28:19.188Z,98722.66
2023-04-01T17:31:43.180Z,98730.69
2023-04-01T17:34:54.730Z,98732.72
2023-04-01T17:38:09.095Z,98734.38
2023-04-01T17:41:23.041Z,98730.09
2023-04-01T17:44:53.525Z,98728.84
2023-04-01T17:48:07.985Z,98731.28
2023-04-01T17:51:16.525Z,98731.91
2023-04-01T17:54:28.168Z,98740.75
2023-04-01T17:57:53.205Z,98736.63
2023-04-01T18:01:06.452Z,98744.63
2023-04-01T18:04:50.493Z,98744.44
2023-04-01T18:07:58.780Z,98750.16
2023-04-01T18:11:36.187Z,98760.75
2023-04-01T18:15:03.648Z,98766.09
2023-04-01T18:18:43.250Z,98769.13
2023-04-01T18:21:54.919Z,98775.28
2023-04-01T18:25:24.154Z,98773.22
2023-04-01T18:28:32.336Z,98775.66
2023-04-01T18:31:39.792Z,98784.22
2023-04-01T18:34:56.171Z,98789.59
2023-04-01T18:38:12.505Z,98796.13
2023-04-01T18:41:20.382Z,98797.56
2023-04-01T18:44:32.479Z,98797.31
2023-04-01T18:47:53.596Z,98799.34
2023-04-01T18:50:59.399Z,98801.62
2023-04-01T18:54:18.890Z,98803.66
2023-04-01T18:57:24.911Z,98804.44
2023-04-01T19:00:40.806Z,98801.72
2023-04-01T19:04:00.372Z,98800.03
2023-04-01T19:07:41.138Z,98808.00
2023-04-01T19:11:19.558Z,98810.81
2023-04-01T19:14:48.929Z,98809.12
2023-04-01T19:18:19.996Z,98808.69
2023-04-01T19:21:30.401Z,98808.41
2023-04-01T19:25:15.474Z,98808.97
2023-04-01T19:28:37.210Z,98815.84
2023-04-01T19:31:55.658Z,98820.44
2023-04-01T19:35:08.548Z,98824.63
2023-04-01T19:38:22.937Z,98826.59
2023-04-01T19:41:37.952Z,98821.66
2023-04-01T19:45:15.722Z,98833.63
2023-04-01T19:48:33.556Z,98831.47
2023-04-01T19:51:57.742Z,98840.00
2023-04-01T19:55:17.959Z,98844.31
2023-04-01T19:58:43.037Z,98848.19
2023-04-01T20:02:08.769Z,98847.34
2023-04-01T20:05:22.586Z,98842.22
2023-04-01T20:09:06.990Z,98839.94
2023-04-01T20:12:19.140Z,98846.66
2023-04-01T20:15:39.302Z,98849.56
2023-04-01T20:18:58.821Z,98856.66
2023-04-01T20:22:04.092Z,98849.25
2023-04-01T20:25:20.512Z,98853.47
2023-04-01T20:28:29.994Z,98858.53
2023-04-01T20:31:38.595Z,98847.81
2023-04-01T20:35:13.450Z,98857.69
2023-04-01T20:38:53.270Z,98856.50
2023-04-01T20:42:18.229Z,98860.91
2023-04-01T20:45:33.703Z,98864.63
2023-04-01T20:48:58.831Z,98863.72
2023-04-01T20:52:14.112Z,98870.75
2023-04-01T20:55:30.647Z,98872.19
2023-04-01T20:58:53.027Z,98871.06
2023-04-01T21:02:28.223Z,98872.75
2023-04-01T21:05:49.849Z,98878.69
2023-04-01T21:09:12.888Z,98878.75
2023-04-01T21:12:27.415Z,98885.78
2023-04-01T21:15:43.882Z,98882.81
2023-04-01T21:19:09.807Z,98886.88
2023-04-01T21:22:30.717Z,98894.88
2023-04-01T21:25:55.195Z,98894.25
2023-04-01T21:29:12.717Z,98893.44
2023-04-01T21:32:39.911Z,98898.16
2023-04-01T21:36:01.119Z,98899.00
2023-04-01T21:39:42.741Z,98897.72
2023-04-01T21:43:06.903Z,98900.41
2023-04-01T21:46:47.028Z,98897.28
2023-04-01T21:50:24.027Z,98899.75
2023-04-01T21:53:51.704Z,98902.41
2023-04-01T21:57:28.558Z,98905.41
2023-04-01T22:00:39.618Z,98900.97
2023-04-01T22:04:01.624Z,98904.47
2023-04-01T22:07:33.805Z,98907.47
2023-04-01T22:10:46.932Z,98903.78
2023-04-01T22:14:11.451Z,98902.59
2023-04-01T22:17:26.572Z,98909.00
2023-04-01T22:20:34.798Z,98908.22
2023-04-01T22:23:47.090Z,98910.16
2023-04-01T22:27:31.341Z,98921.94
2023-04-01T22:30:35.227Z,98917.75
2023-04-01T22:34:15.450Z,98914.06
2023-04-01T22:37:42.185Z,98918.50
2023-04-01T22:41:03.028Z,98922.50
2023-04-01T22:44:32.291Z,98929.38
2023-04-01T22:48:02.429Z,98931.28
2023-04-01T22:51:17.900Z,98934.87
2023-04-01T22:54:46.562Z,98936.06
2023-04-01T22:57:53.336Z,98937.94
2023-04-01T23:01:02.302Z,98950.09
2023-04-01T23:04:07.371Z,98947.16
2023-04-01T23:07:36.324Z,98955.28
2023-04-01T23:10:53.752Z,98951.19
2023-04-01T23:14:11.562Z,98956.50
2023-04-01T23:17:37.403Z,98960.16
2023-04-01T23:21:16.969Z,98967.25
2023-04-01T23:24:34.393Z,98969.84
2023-04-01T23:27:48.545Z,98983.12
2023-04-01T23:30:52.356Z,98980.00
2023-04-01T23:34:19.493Z,98976.97
2023-04-01T23:37:23.315Z,98968.91
2023-04-01T23:40:27.475Z,98977.75
2023-04-01T23:43:38.149Z,98979.87
2023-04-01T23:46:42.059Z,98986.22
2023-04-01T23:49:56.445Z,98991.53
2023-04-01T23:53:05.694Z,98994.84
2023-04-01T23:56:08.548Z,98996.16
2023-04-01T23:59:19.641Z,98989.06
